sensor_id;sensor_type;location;lat;lon;timestamp;pressure;altitude;pressure_sealevel;temperature;humidity
6938;BME280;40040;42.706;23.372;2023-09-12T00:00:11;148386.56;;;17.10;77.03
6938;BME280;40040;42.706;23.372;2023-09-12T00:02:40;148377.88;;;17.06;77.20
6938;BME280;40040;42.706;23.372;2023-09-12T00:05:07;148379.13;;;17.07;77.07
6938;BME280;40040;42.706;23.372;2023-09-12T00:07:34;148376.63;;;17.06;77.14
6938;BME280;40040;42.706;23.372;2023-09-12T00:10:01;148372.91;;;17.04;77.33
6938;BME280;40040;42.706;23.372;2023-09-12T00:12:28;148362.97;;;17.00;77.78
6938;BME280;40040;42.706;23.372;2023-09-12T00:14:55;148339.44;;;16.91;78.31
6938;BME280;40040;42.706;23.372;2023-09-12T00:17:22;148325.81;;;16.85;79.31
6938;BME280;40040;42.706;23.372;2023-09-12T00:19:50;148308.44;;;16.78;79.13
6938;BME280;40040;42.706;23.372;2023-09-12T00:22:16;148291.09;;;16.71;79.74
6938;BME280;40040;42.706;23.372;2023-09-12T00:24:43;148294.81;;;16.72;79.60
6938;BME280;40040;42.706;23.372;2023-09-12T00:27:10;148297.31;;;16.73;80.10
6938;BME280;40040;42.706;23.372;2023-09-12T00:29:37;148288.63;;;16.70;80.29
6938;BME280;40040;42.706;23.372;2023-09-12T00:32:04;148244.00;;;16.52;80.23
6938;BME280;40040;42.706;23.372;2023-09-12T00:34:31;148246.47;;;16.53;81.29
6938;BME280;40040;42.706;23.372;2023-09-12T00:36:59;148253.94;;;16.56;80.55
6938;BME280;40040;42.706;23.372;2023-09-12T00:39:26;148247.72;;;16.53;80.57
6938;BME280;40040;42.706;23.372;2023-09-12T00:41:53;148239.03;;;16.50;80.74
6938;BME280;40040;42.706;23.372;2023-09-12T00:44:20;148225.34;;;16.44;81.11
6938;BME280;40040;42.706;23.372;2023-09-12T00:46:49;148214.22;;;16.40;81.93
6938;BME280;40040;42.706;23.372;2023-09-12T00:49:17;148205.53;;;16.36;81.96
6938;BME280;40040;42.706;23.372;2023-09-12T00:51:44;148186.94;;;16.29;82.72
6938;BME280;40040;42.706;23.372;2023-09-12T00:54:14;148169.59;;;16.22;82.63
6938;BME280;40040;42.706;23.372;2023-09-12T00:56:41;148153.50;;;16.15;83.09
6938;BME280;40040;42.706;23.372;2023-09-12T00:59:08;148125.00;;;16.04;84.62
6938;BME280;40040;42.706;23.372;2023-09-12T01:01:36;148115.09;;;16.00;84.79
6938;BME280;40040;42.706;23.372;2023-09-12T01:04:03;148096.50;;;15.92;85.82
6938;BME280;40040;42.706;23.372;2023-09-12T01:06:31;148064.31;;;15.79;85.87
6938;BME280;40040;42.706;23.372;2023-09-12T01:09:00;148097.75;;;15.93;85.49
6938;BME280;40040;42.706;23.372;2023-09-12T01:11:28;148084.09;;;15.87;84.94
6938;BME280;40040;42.706;23.372;2023-09-12T01:13:55;148095.28;;;15.92;84.76
6938;BME280;40040;42.706;23.372;2023-09-12T01:16:22;148068.03;;;15.81;84.94
6938;BME280;40040;42.706;23.372;2023-09-12T01:18:49;148072.97;;;15.83;85.16
6938;BME280;40040;42.706;23.372;2023-09-12T01:21:38;148061.81;;;15.78;85.68
6938;BME280;40040;42.706;23.372;2023-09-12T01:27:32;148035.78;;;15.67;86.05
6938;BME280;40040;42.706;23.372;2023-09-12T01:30:02;148023.41;;;15.62;85.82
6938;BME280;40040;42.706;23.372;2023-09-12T01:32:31;147996.19;;;15.51;86.07
6938;BME280;40040;42.706;23.372;2023-09-12T01:34:58;148016.00;;;15.59;86.36
6938;BME280;40040;42.706;23.372;2023-09-12T01:37:25;148001.13;;;15.53;86.61
6938;BME280;40040;42.706;23.372;2023-09-12T01:39:52;147973.91;;;15.42;87.07
6938;BME280;40040;42.706;23.372;2023-09-12T01:42:21;147898.28;;;15.12;87.17
6938;BME280;40040;42.706;23.372;2023-09-12T01:44:55;147968.94;;;15.40;87.84
6938;BME280;40040;42.706;23.372;2023-09-12T01:47:23;147947.84;;;15.32;88.07
6938;BME280;40040;42.706;23.372;2023-09-12T01:49:52;147913.16;;;15.18;88.79
6938;BME280;40040;42.706;23.372;2023-09-12T01:52:21;147915.63;;;15.19;89.25
6938;BME280;40040;42.706;23.372;2023-09-12T01:54:49;147909.47;;;15.16;88.67
6938;BME280;40040;42.706;23.372;2023-09-12T01:57:17;147895.84;;;15.11;88.84
6938;BME280;40040;42.706;23.372;2023-09-12T01:59:46;147894.59;;;15.10;88.48
6938;BME280;40040;42.706;23.372;2023-09-12T02:02:14;147892.13;;;15.09;89.17
6938;BME280;40040;42.706;23.372;2023-09-12T02:04:41;147877.25;;;15.03;89.50
6938;BME280;40040;42.706;23.372;2023-09-12T02:07:08;147869.84;;;15.00;90.12
6938;BME280;40040;42.706;23.372;2023-09-12T02:09:35;147864.88;;;14.98;89.60
6938;BME280;40040;42.706;23.372;2023-09-12T02:12:02;147853.75;;;14.94;90.16
6938;BME280;40040;42.706;23.372;2023-09-12T02:14:29;147848.81;;;14.92;90.55
6938;BME280;40040;42.706;23.372;2023-09-12T02:16:55;147845.09;;;14.90;90.36
6938;BME280;40040;42.706;23.372;2023-09-12T02:19:23;147837.63;;;14.87;91.02
6938;BME280;40040;42.706;23.372;2023-09-12T02:21:50;147828.97;;;14.84;91.15
6938;BME280;40040;42.706;23.372;2023-09-12T02:24:17;147811.69;;;14.77;91.66
6938;BME280;40040;42.706;23.372;2023-09-12T02:26:46;147817.84;;;14.79;92.04
6938;BME280;40040;42.706;23.372;2023-09-12T02:29:13;147795.56;;;14.70;92.06
6938;BME280;40040;42.706;23.372;2023-09-12T02:31:40;147769.56;;;14.59;93.02
6938;BME280;40040;42.706;23.372;2023-09-12T02:34:06;147795.56;;;14.70;92.78
6938;BME280;40040;42.706;23.372;2023-09-12T02:36:35;147798.06;;;14.71;92.85
6938;BME280;40040;42.706;23.372;2023-09-12T02:39:01;147796.81;;;14.71;93.28
6938;BME280;40040;42.706;23.372;2023-09-12T02:41:29;147788.16;;;14.67;93.68
6938;BME280;40040;42.706;23.372;2023-09-12T02:43:55;147780.75;;;14.64;94.03
6938;BME280;40040;42.706;23.372;2023-09-12T02:46:22;147765.88;;;14.58;94.85
6938;BME280;40040;42.706;23.372;2023-09-12T02:48:49;147753.50;;;14.53;95.17
6938;BME280;40040;42.706;23.372;2023-09-12T02:51:15;147754.75;;;14.53;95.07
6938;BME280;40040;42.706;23.372;2023-09-12T02:53:44;147726.25;;;14.42;94.94
6938;BME280;40040;42.706;23.372;2023-09-12T02:56:11;147749.78;;;14.51;95.08
6938;BME280;40040;42.706;23.372;2023-09-12T02:58:38;147747.34;;;14.50;95.30
6938;BME280;40040;42.706;23.372;2023-09-12T03:01:04;147746.09;;;14.50;95.02
6938;BME280;40040;42.706;23.372;2023-09-12T03:03:32;147743.56;;;14.49;95.09
6938;BME280;40040;42.706;23.372;2023-09-12T03:06:00;147746.09;;;14.50;94.87
6938;BME280;40040;42.706;23.372;2023-09-12T03:08:28;147754.75;;;14.53;94.94
6938;BME280;40040;42.706;23.372;2023-09-12T03:10:57;147742.38;;;14.48;94.87
6938;BME280;40040;42.706;23.372;2023-09-12T03:13:24;147726.25;;;14.42;94.77
6938;BME280;40040;42.706;23.372;2023-09-12T03:15:52;147720.09;;;14.39;94.66
6938;BME280;40040;42.706;23.372;2023-09-12T03:18:19;147723.78;;;14.41;94.56
6938;BME280;40040;42.706;23.372;2023-09-12T03:20:45;147696.56;;;14.30;95.44
6938;BME280;40040;42.706;23.372;2023-09-12T03:23:12;147643.34;;;14.08;96.60
6938;BME280;40040;42.706;23.372;2023-09-12T03:25:39;147622.31;;;14.00;97.78
6938;BME280;40040;42.706;23.372;2023-09-12T03:28:08;147627.22;;;14.02;97.74
6938;BME280;40040;42.706;23.372;2023-09-12T03:30:35;147624.78;;;14.01;97.25
6938;BME280;40040;42.706;23.372;2023-09-12T03:33:03;147630.97;;;14.03;97.17
6938;BME280;40040;42.706;23.372;2023-09-12T03:35:31;147624.78;;;14.01;96.70
6938;BME280;40040;42.706;23.372;2023-09-12T03:37:58;147622.31;;;14.00;96.95
6938;BME280;40040;42.706;23.372;2023-09-12T03:40:25;147616.09;;;13.97;97.50
6938;BME280;40040;42.706;23.372;2023-09-12T03:42:52;147614.88;;;13.97;97.45
6938;BME280;40040;42.706;23.372;2023-09-12T03:45:20;147618.56;;;13.98;97.14
6938;BME280;40040;42.706;23.372;2023-09-12T03:47:47;147590.13;;;13.87;96.94
6938;BME280;40040;42.706;23.372;2023-09-12T03:50:14;147612.41;;;13.96;96.83
6938;BME280;40040;42.706;23.372;2023-09-12T03:52:41;147612.41;;;13.96;96.73
6938;BME280;40040;42.706;23.372;2023-09-12T03:55:08;147607.44;;;13.94;96.67
6938;BME280;40040;42.706;23.372;2023-09-12T03:57:35;147608.69;;;13.94;96.32
6938;BME280;40040;42.706;23.372;2023-09-12T04:00:02;147605.00;;;13.93;96.29
6938;BME280;40040;42.706;23.372;2023-09-12T04:02:32;147605.00;;;13.93;96.33
6938;BME280;40040;42.706;23.372;2023-09-12T04:04:59;147595.09;;;13.89;96.53
6938;BME280;40040;42.706;23.372;2023-09-12T04:07:26;147602.50;;;13.92;96.55
6938;BME280;40040;42.706;23.372;2023-09-12T04:09:52;147597.53;;;13.90;96.82
6938;BME280;40040;42.706;23.372;2023-09-12T04:12:19;147591.38;;;13.87;96.97
6938;BME280;40040;42.706;23.372;2023-09-12T04:14:49;147600.03;;;13.91;96.43
6938;BME280;40040;42.706;23.372;2023-09-12T04:17:17;147597.53;;;13.90;96.90
6938;BME280;40040;42.706;23.372;2023-09-12T04:19:45;147593.84;;;13.88;96.78
6938;BME280;40040;42.706;23.372;2023-09-12T04:22:12;147602.50;;;13.92;96.16
6938;BME280;40040;42.706;23.372;2023-09-12T04:24:39;147585.19;;;13.85;95.62
6938;BME280;40040;42.706;23.372;2023-09-12T04:27:07;147609.91;;;13.95;95.65
6938;BME280;40040;42.706;23.372;2023-09-12T04:29:34;147592.63;;;13.88;95.74
6938;BME280;40040;42.706;23.372;2023-09-12T04:32:01;147596.34;;;13.89;96.23
6938;BME280;40040;42.706;23.372;2023-09-12T04:34:28;147607.44;;;13.94;96.68
6938;BME280;40040;42.706;23.372;2023-09-12T04:36:57;147619.81;;;13.99;96.01
6938;BME280;40040;42.706;23.372;2023-09-12T04:39:24;147530.78;;;13.63;95.83
6938;BME280;40040;42.706;23.372;2023-09-12T04:41:51;147627.22;;;14.02;95.22
6938;BME280;40040;42.706;23.372;2023-09-12T04:44:18;147602.50;;;13.92;94.64
6938;BME280;40040;42.706;23.372;2023-09-12T04:46:45;147622.31;;;14.00;94.71
6938;BME280;40040;42.706;23.372;2023-09-12T04:49:11;147587.69;;;13.86;95.31
6938;BME280;40040;42.706;23.372;2023-09-12T04:51:38;147619.81;;;13.99;95.62
6938;BME280;40040;42.706;23.372;2023-09-12T04:54:06;147621.06;;;13.99;95.88
6938;BME280;40040;42.706;23.372;2023-09-12T04:56:33;147600.03;;;13.91;95.05
6938;BME280;40040;42.706;23.372;2023-09-12T04:59:00;147597.53;;;13.90;94.77
6938;BME280;40040;42.706;23.372;2023-09-12T05:01:27;147614.88;;;13.97;95.30
6938;BME280;40040;42.706;23.372;2023-09-12T05:03:53;147609.91;;;13.95;95.66
6938;BME280;40040;42.706;23.372;2023-09-12T05:06:20;147614.88;;;13.97;96.72
6938;BME280;40040;42.706;23.372;2023-09-12T05:08:47;147624.78;;;14.01;96.91
6938;BME280;40040;42.706;23.372;2023-09-12T05:11:15;147639.63;;;14.07;96.80
6938;BME280;40040;42.706;23.372;2023-09-12T05:13:42;147659.41;;;14.15;96.23
6938;BME280;40040;42.706;23.372;2023-09-12T05:16:09;147671.78;;;14.20;95.73
6938;BME280;40040;42.706;23.372;2023-09-12T05:18:36;147690.41;;;14.27;95.00
6938;BME280;40040;42.706;23.372;2023-09-12T05:21:03;147730.00;;;14.43;93.58
6938;BME280;40040;42.706;23.372;2023-09-12T05:23:29;147759.69;;;14.55;93.44
6938;BME280;40040;42.706;23.372;2023-09-12T05:25:56;147790.59;;;14.68;92.36
6938;BME280;40040;42.706;23.372;2023-09-12T05:28:24;147817.84;;;14.79;91.56
6938;BME280;40040;42.706;23.372;2023-09-12T05:30:52;147843.84;;;14.90;90.65
6938;BME280;40040;42.706;23.372;2023-09-12T05:33:19;147867.38;;;14.99;90.91
6938;BME280;40040;42.706;23.372;2023-09-12T05:35:45;147899.53;;;15.12;90.29
6938;BME280;40040;42.706;23.372;2023-09-12T05:38:12;147930.50;;;15.25;89.19
6938;BME280;40040;42.706;23.372;2023-09-12T05:40:39;147966.44;;;15.39;88.87
6938;BME280;40040;42.706;23.372;2023-09-12T05:43:06;148006.06;;;15.55;87.59
6938;BME280;40040;42.706;23.372;2023-09-12T05:45:34;148049.44;;;15.73;86.57
6938;BME280;40040;42.706;23.372;2023-09-12T05:48:01;148117.53;;;16.01;84.83
6938;BME280;40040;42.706;23.372;2023-09-12T05:50:28;148138.59;;;16.09;83.65
6938;BME280;40040;42.706;23.372;2023-09-12T05:52:55;148216.66;;;16.41;82.81
6938;BME280;40040;42.706;23.372;2023-09-12T05:55:22;148278.69;;;16.66;79.97
6938;BME280;40040;42.706;23.372;2023-09-12T05:57:49;148291.09;;;16.71;78.89
6938;BME280;40040;42.706;23.372;2023-09-12T06:00:18;148358.00;;;16.98;77.30
6938;BME280;40040;42.706;23.372;2023-09-12T06:02:46;148410.09;;;17.19;76.42
6938;BME280;40040;42.706;23.372;2023-09-12T06:05:13;148448.53;;;17.35;74.85
6938;BME280;40040;42.706;23.372;2023-09-12T06:07:41;148484.53;;;17.49;74.31
6938;BME280;40040;42.706;23.372;2023-09-12T06:10:09;148525.50;;;17.66;73.60
6938;BME280;40040;42.706;23.372;2023-09-12T06:12:36;148552.75;;;17.77;72.34
6938;BME280;40040;42.706;23.372;2023-09-12T06:15:03;148638.34;;;18.12;72.43
6938;BME280;40040;42.706;23.372;2023-09-12T06:17:30;148700.41;;;18.37;70.51
6938;BME280;40040;42.706;23.372;2023-09-12T06:19:59;148737.66;;;18.52;69.54
6938;BME280;40040;42.706;23.372;2023-09-12T06:22:26;148732.69;;;18.50;68.43
6938;BME280;40040;42.706;23.372;2023-09-12T06:24:53;148757.56;;;18.60;68.68
6938;BME280;40040;42.706;23.372;2023-09-12T06:27:20;148817.13;;;18.84;66.35
6938;BME280;40040;42.706;23.372;2023-09-12T06:29:47;148839.50;;;18.93;66.61
6938;BME280;40040;42.706;23.372;2023-09-12T06:32:15;148879.19;;;19.09;65.45
6938;BME280;40040;42.706;23.372;2023-09-12T06:34:42;148936.34;;;19.32;64.17
6938;BME280;40040;42.706;23.372;2023-09-12T06:37:11;148957.47;;;19.41;62.43
6938;BME280;40040;42.706;23.372;2023-09-12T06:39:38;149040.69;;;19.74;61.76
6938;BME280;40040;42.706;23.372;2023-09-12T06:42:06;149059.34;;;19.82;60.45
6938;BME280;40040;42.706;23.372;2023-09-12T06:44:33;149096.59;;;19.97;60.20
6938;BME280;40040;42.706;23.372;2023-09-12T06:47:00;149109.00;;;20.02;60.07
6938;BME280;40040;42.706;23.372;2023-09-12T06:49:26;149173.66;;;20.28;58.23
6938;BME280;40040;42.706;23.372;2023-09-12T06:51:53;149152.53;;;20.20;57.48
6938;BME280;40040;42.706;23.372;2023-09-12T06:54:22;149167.47;;;20.26;57.11
6938;BME280;40040;42.706;23.372;2023-09-12T06:56:49;149116.44;;;20.05;57.90
6938;BME280;40040;42.706;23.372;2023-09-12T06:59:15;149087.88;;;19.93;58.20
6938;BME280;40040;42.706;23.372;2023-09-12T07:01:42;149105.28;;;20.00;59.78
6938;BME280;40040;42.706;23.372;2023-09-12T07:04:10;149156.25;;;20.21;58.14
6938;BME280;40040;42.706;23.372;2023-09-12T07:06:37;149193.56;;;20.36;56.53
6938;BME280;40040;42.706;23.372;2023-09-12T07:09:04;149259.41;;;20.63;56.10
6938;BME280;40040;42.706;23.372;2023-09-12T07:11:35;149304.16;;;20.81;55.45
6938;BME280;40040;42.706;23.372;2023-09-12T07:14:02;149321.56;;;20.88;54.12
6938;BME280;40040;42.706;23.372;2023-09-12T07:16:30;149376.31;;;21.10;54.30
6938;BME280;40040;42.706;23.372;2023-09-12T07:18:57;149433.53;;;21.33;53.19
6938;BME280;40040;42.706;23.372;2023-09-12T07:21:24;149432.25;;;21.33;52.65
6938;BME280;40040;42.706;23.372;2023-09-12T07:23:51;149513.13;;;21.65;51.29
6938;BME280;40040;42.706;23.372;2023-09-12T07:26:18;149535.47;;;21.74;51.49
6938;BME280;40040;42.706;23.372;2023-09-12T07:28:46;149535.47;;;21.74;50.93
6938;BME280;40040;42.706;23.372;2023-09-12T07:31:14;149515.59;;;21.66;51.00
6938;BME280;40040;42.706;23.372;2023-09-12T07:33:40;149520.59;;;21.68;50.61
6938;BME280;40040;42.706;23.372;2023-09-12T07:36:07;149530.56;;;21.72;50.66
6938;BME280;40040;42.706;23.372;2023-09-12T07:38:34;149557.94;;;21.83;50.07
6938;BME280;40040;42.706;23.372;2023-09-12T07:41:02;149591.50;;;21.97;49.49
6938;BME280;40040;42.706;23.372;2023-09-12T07:43:29;149635.06;;;22.14;49.51
6938;BME280;40040;42.706;23.372;2023-09-12T07:45:58;149623.88;;;22.10;49.42
6938;BME280;40040;42.706;23.372;2023-09-12T07:48:25;149652.47;;;22.21;48.01
6938;BME280;40040;42.706;23.372;2023-09-12T07:50:52;149656.19;;;22.23;48.50
6938;BME280;40040;42.706;23.372;2023-09-12T07:53:19;149724.69;;;22.51;48.20
6938;BME280;40040;42.706;23.372;2023-09-12T07:55:46;149755.81;;;22.63;47.82
6938;BME280;40040;42.706;23.372;2023-09-12T07:58:13;149769.50;;;22.69;47.38
6938;BME280;40040;42.706;23.372;2023-09-12T08:00:40;149804.34;;;22.83;46.14
6938;BME280;40040;42.706;23.372;2023-09-12T08:03:09;149795.63;;;22.79;46.88
6938;BME280;40040;42.706;23.372;2023-09-12T08:05:36;149811.81;;;22.86;46.40
6938;BME280;40040;42.706;23.372;2023-09-12T08:08:04;149839.22;;;22.97;46.53
6938;BME280;40040;42.706;23.372;2023-09-12T08:10:31;149884.06;;;23.15;46.29
6938;BME280;40040;42.706;23.372;2023-09-12T08:12:57;149898.97;;;23.21;45.78
6938;BME280;40040;42.706;23.372;2023-09-12T08:15:24;149972.47;;;23.51;45.88
6938;BME280;40040;42.706;23.372;2023-09-12T08:17:51;150027.31;;;23.73;45.31
6938;BME280;40040;42.706;23.372;2023-09-12T08:20:20;150023.53;;;23.71;43.56
6938;BME280;40040;42.706;23.372;2023-09-12T08:22:47;150021.06;;;23.70;44.55
6938;BME280;40040;42.706;23.372;2023-09-12T08:25:14;150021.06;;;23.70;43.48
6938;BME280;40040;42.706;23.372;2023-09-12T08:27:41;150130.75;;;24.14;42.41
6938;BME280;40040;42.706;23.372;2023-09-12T08:30:10;150207.97;;;24.45;41.68
6938;BME280;40040;42.706;23.372;2023-09-12T08:32:38;150299.00;;;24.82;41.30
6938;BME280;40040;42.706;23.372;2023-09-12T08:35:09;150370.03;;;25.11;41.58
6938;BME280;40040;42.706;23.372;2023-09-12T08:37:39;150452.34;;;25.44;40.54
6938;BME280;40040;42.706;23.372;2023-09-12T08:40:08;150468.59;;;25.50;40.44
6938;BME280;40040;42.706;23.372;2023-09-12T08:42:39;150637.00;;;26.18;39.26
6938;BME280;40040;42.706;23.372;2023-09-12T08:45:11;150716.81;;;26.50;38.79
6938;BME280;40040;42.706;23.372;2023-09-12T08:47:40;150671.94;;;26.32;38.38
6938;BME280;40040;42.706;23.372;2023-09-12T08:50:10;150688.16;;;26.39;38.31
6938;BME280;40040;42.706;23.372;2023-09-12T08:52:40;150688.16;;;26.39;37.55
6938;BME280;40040;42.706;23.372;2023-09-12T08:55:08;150643.22;;;26.21;37.54
6938;BME280;40040;42.706;23.372;2023-09-12T08:57:36;150642.00;;;26.20;38.40
6938;BME280;40040;42.706;23.372;2023-09-12T09:00:06;150734.28;;;26.57;38.11
6938;BME280;40040;42.706;23.372;2023-09-12T09:02:34;150866.66;;;27.11;37.44
6938;BME280;40040;42.706;23.372;2023-09-12T09:05:02;151000.25;;;27.64;36.63
6938;BME280;40040;42.706;23.372;2023-09-12T09:07:32;151148.94;;;28.24;36.03
6938;BME280;40040;42.706;23.372;2023-09-12T09:10:02;151291.38;;;28.82;34.74
6938;BME280;40040;42.706;23.372;2023-09-12T09:12:30;151435.13;;;29.39;34.17
6938;BME280;40040;42.706;23.372;2023-09-12T09:14:57;151496.41;;;29.64;31.83
6938;BME280;40040;42.706;23.372;2023-09-12T09:17:26;151571.41;;;29.94;31.82
6938;BME280;40040;42.706;23.372;2023-09-12T09:19:53;151626.47;;;30.16;31.44
6938;BME280;40040;42.706;23.372;2023-09-12T09:22:20;151717.81;;;30.53;30.62
6938;BME280;40040;42.706;23.372;2023-09-12T09:24:48;151741.53;;;30.62;30.78
6938;BME280;40040;42.706;23.372;2023-09-12T09:27:36;151667.75;;;30.33;31.69
6938;BME280;40040;42.706;23.372;2023-09-12T09:30:04;151538.94;;;29.81;31.66
6938;BME280;40040;42.706;23.372;2023-09-12T09:32:31;151421.38;;;29.34;32.33
6938;BME280;40040;42.706;23.372;2023-09-12T09:34:58;151257.66;;;28.68;33.21
6938;BME280;40040;42.706;23.372;2023-09-12T09:37:26;151173.91;;;28.34;33.48
6938;BME280;40040;42.706;23.372;2023-09-12T09:39:53;151161.41;;;28.29;34.85
6938;BME280;40040;42.706;23.372;2023-09-12T09:42:21;151182.66;;;28.38;33.68
6938;BME280;40040;42.706;23.372;2023-09-12T09:44:51;151185.13;;;28.39;34.46
6938;BME280;40040;42.706;23.372;2023-09-12T09:47:18;151222.66;;;28.54;33.82
6938;BME280;40040;42.706;23.372;2023-09-12T09:49:46;151306.34;;;28.88;33.15
6938;BME280;40040;42.706;23.372;2023-09-12T09:52:13;151438.88;;;29.41;32.83
6938;BME280;40040;42.706;23.372;2023-09-12T09:54:43;151617.72;;;30.13;31.48
6938;BME280;40040;42.706;23.372;2023-09-12T09:57:10;151735.28;;;30.60;30.51
6938;BME280;40040;42.706;23.372;2023-09-12T09:59:40;151807.91;;;30.89;30.32
6938;BME280;40040;42.706;23.372;2023-09-12T10:02:14;151886.72;;;31.21;29.59
6938;BME280;40040;42.706;23.372;2023-09-12T10:04:44;151906.72;;;31.29;30.18
6938;BME280;40040;42.706;23.372;2023-09-12T10:07:12;151998.13;;;31.65;29.21
6938;BME280;40040;42.706;23.372;2023-09-12T10:09:40;152148.34;;;32.26;27.83
6938;BME280;40040;42.706;23.372;2023-09-12T10:12:09;152318.75;;;32.94;27.67
6938;BME280;40040;42.706;23.372;2023-09-12T10:14:39;152397.66;;;33.26;26.73
6938;BME280;40040;42.706;23.372;2023-09-12T10:17:08;152432.75;;;33.40;26.81
6938;BME280;40040;42.706;23.372;2023-09-12T10:19:43;152541.78;;;33.83;26.54
6938;BME280;40040;42.706;23.372;2023-09-12T10:22:18;152682.22;;;34.40;25.74
6938;BME280;40040;42.706;23.372;2023-09-12T10:24:49;152788.78;;;34.82;25.61
6938;BME280;40040;42.706;23.372;2023-09-12T10:27:20;152585.69;;;34.01;25.92
6938;BME280;40040;42.706;23.372;2023-09-12T10:29:49;152528.00;;;33.78;26.51
6938;BME280;40040;42.706;23.372;2023-09-12T10:32:20;152561.81;;;33.91;26.54
6938;BME280;40040;42.706;23.372;2023-09-12T10:34:48;152658.38;;;34.30;25.34
6938;BME280;40040;42.706;23.372;2023-09-12T10:37:16;152798.81;;;34.86;26.00
6938;BME280;40040;42.706;23.372;2023-09-12T10:39:44;152773.75;;;34.76;24.93
6938;BME280;40040;42.706;23.372;2023-09-12T10:42:12;152741.16;;;34.63;25.44
6938;BME280;40040;42.706;23.372;2023-09-12T10:44:39;152749.91;;;34.67;25.19
6938;BME280;40040;42.706;23.372;2023-09-12T10:47:07;152645.84;;;34.25;25.46
6938;BME280;40040;42.706;23.372;2023-09-12T10:49:37;152538.03;;;33.82;26.10
6938;BME280;40040;42.706;23.372;2023-09-12T10:52:05;152632.06;;;34.20;26.34
6938;BME280;40040;42.706;23.372;2023-09-12T10:54:37;152771.22;;;34.75;25.45
6938;BME280;40040;42.706;23.372;2023-09-12T10:57:05;152798.81;;;34.86;24.03
6938;BME280;40040;42.706;23.372;2023-09-12T10:59:33;152675.91;;;34.37;24.80
6938;BME280;40040;42.706;23.372;2023-09-12T11:02:28;152605.72;;;34.09;25.25
6938;BME280;40040;42.706;23.372;2023-09-12T11:04:58;152558.06;;;33.90;25.89
6938;BME280;40040;42.706;23.372;2023-09-12T11:07:33;152465.38;;;33.53;25.92
6938;BME280;40040;42.706;23.372;2023-09-12T11:10:20;152543.06;;;33.84;26.17
6938;BME280;40040;42.706;23.372;2023-09-12T11:12:49;152465.38;;;33.53;25.93
6938;BME280;40040;42.706;23.372;2023-09-12T11:15:16;152376.38;;;33.17;26.50
6938;BME280;40040;42.706;23.372;2023-09-12T11:17:45;152405.16;;;33.29;26.08
6938;BME280;40040;42.706;23.372;2023-09-12T11:20:15;152330.06;;;32.98;26.57
6938;BME280;40040;42.706;23.372;2023-09-12T11:22:44;152355.09;;;33.09;27.10
6938;BME280;40040;42.706;23.372;2023-09-12T11:25:21;152425.25;;;33.37;27.65
6938;BME280;40040;42.706;23.372;2023-09-12T11:28:03;152533.03;;;33.80;27.64
6938;BME280;40040;42.706;23.372;2023-09-12T11:30:31;152643.34;;;34.24;25.22
6938;BME280;40040;42.706;23.372;2023-09-12T11:32:58;152719.84;;;34.55;24.85
6938;BME280;40040;42.706;23.372;2023-09-12T11:35:28;152771.22;;;34.75;24.78
6938;BME280;40040;42.706;23.372;2023-09-12T11:37:56;152806.34;;;34.89;24.68
6938;BME280;40040;42.706;23.372;2023-09-12T11:40:25;152724.88;;;34.57;24.33
6938;BME280;40040;42.706;23.372;2023-09-12T11:42:53;152600.72;;;34.07;25.20
6938;BME280;40040;42.706;23.372;2023-09-12T11:45:21;152604.50;;;34.08;24.90
6938;BME280;40040;42.706;23.372;2023-09-12T11:47:49;152658.38;;;34.30;25.11
6938;BME280;40040;42.706;23.372;2023-09-12T11:50:31;152465.38;;;33.53;25.24
6938;BME280;40040;42.706;23.372;2023-09-12T11:53:00;152450.31;;;33.47;24.98
6938;BME280;40040;42.706;23.372;2023-09-12T11:55:30;152417.69;;;33.34;25.41
6938;BME280;40040;42.706;23.372;2023-09-12T11:57:57;152282.41;;;32.79;25.45
6938;BME280;40040;42.706;23.372;2023-09-12T12:00:24;152363.84;;;33.12;26.04
6938;BME280;40040;42.706;23.372;2023-09-12T12:02:52;152422.72;;;33.36;25.17
6938;BME280;40040;42.706;23.372;2023-09-12T12:05:19;152573.19;;;33.96;24.74
6938;BME280;40040;42.706;23.372;2023-09-12T12:07:48;152627.03;;;34.18;24.59
6938;BME280;40040;42.706;23.372;2023-09-12T12:10:16;152665.88;;;34.33;24.89
6938;BME280;40040;42.706;23.372;2023-09-12T12:12:44;152534.28;;;33.80;24.61
6938;BME280;40040;42.706;23.372;2023-09-12T12:15:12;152575.66;;;33.97;25.21
6938;BME280;40040;42.706;23.372;2023-09-12T12:17:40;152481.66;;;33.59;24.55
6938;BME280;40040;42.706;23.372;2023-09-12T12:20:09;152437.75;;;33.42;25.35
6938;BME280;40040;42.706;23.372;2023-09-12T12:22:37;152482.88;;;33.60;25.86
6938;BME280;40040;42.706;23.372;2023-09-12T12:25:09;152500.41;;;33.67;25.62
6938;BME280;40040;42.706;23.372;2023-09-12T12:27:37;152511.72;;;33.71;25.36
6938;BME280;40040;42.706;23.372;2023-09-12T12:30:06;152548.06;;;33.86;24.56
6938;BME280;40040;42.706;23.372;2023-09-12T12:32:34;152571.91;;;33.95;24.26
6938;BME280;40040;42.706;23.372;2023-09-12T12:35:01;152501.69;;;33.67;25.64
6938;BME280;40040;42.706;23.372;2023-09-12T12:37:29;152435.22;;;33.41;25.00
6938;BME280;40040;42.706;23.372;2023-09-12T12:39:57;152439.03;;;33.42;24.90
6938;BME280;40040;42.706;23.372;2023-09-12T12:42:28;152449.06;;;33.46;24.80
6938;BME280;40040;42.706;23.372;2023-09-12T12:44:59;152430.25;;;33.39;25.26
6938;BME280;40040;42.706;23.372;2023-09-12T12:47:26;152387.63;;;33.22;25.02
6938;BME280;40040;42.706;23.372;2023-09-12T12:49:54;152340.03;;;33.02;25.50
6938;BME280;40040;42.706;23.372;2023-09-12T12:52:24;152292.41;;;32.83;25.46
6938;BME280;40040;42.706;23.372;2023-09-12T12:54:51;152228.56;;;32.58;26.04
6938;BME280;40040;42.706;23.372;2023-09-12T12:57:20;152232.31;;;32.59;26.03